sensor_id;sensor_type;location;lat;lon;timestamp;temperature;humidity
59660;DHT22;45534;52.690;6.268;2022-07-03T00:00:32;17.70;99.90
59660;DHT22;45534;52.690;6.268;2022-07-03T00:02:58;17.70;99.90
59660;DHT22;45534;52.690;6.268;2022-07-03T00:05:24;17.60;99.90
59660;DHT22;45534;52.690;6.268;2022-07-03T00:07:50;17.60;99.90
59660;DHT22;45534;52.690;6.268;2022-07-03T00:10:15;17.60;99.90
59660;DHT22;45534;52.690;6.268;2022-07-03T00:12:41;17.60;99.90
59660;DHT22;45534;52.690;6.268;2022-07-03T00:15:07;17.60;99.90
59660;DHT22;45534;52.690;6.268;2022-07-03T00:17:34;17.50;99.90
59660;DHT22;45534;52.690;6.268;2022-07-03T00:19:59;17.40;99.90
59660;DHT22;45534;52.690;6.268;2022-07-03T00:22:26;17.40;99.90
59660;DHT22;45534;52.690;6.268;2022-07-03T00:24:58;17.30;99.90
59660;DHT22;45534;52.690;6.268;2022-07-03T00:27:26;17.20;99.90
59660;DHT22;45534;52.690;6.268;2022-07-03T00:29:56;17.10;99.90
59660;DHT22;45534;52.690;6.268;2022-07-03T00:32:23;17.10;99.90
59660;DHT22;45534;52.690;6.268;2022-07-03T00:34:51;17.10;99.90
59660;DHT22;45534;52.690;6.268;2022-07-03T00:37:17;17.10;99.90
59660;DHT22;45534;52.690;6.268;2022-07-03T00:39:43;17.00;99.90
59660;DHT22;45534;52.690;6.268;2022-07-03T00:42:11;17.00;99.90
59660;DHT22;45534;52.690;6.268;2022-07-03T00:44:44;16.90;99.90
59660;DHT22;45534;52.690;6.268;2022-07-03T00:47:12;16.90;99.90
59660;DHT22;45534;52.690;6.268;2022-07-03T00:49:38;16.80;99.90
59660;DHT22;45534;52.690;6.268;2022-07-03T00:52:05;16.80;99.90
59660;DHT22;45534;52.690;6.268;2022-07-03T00:54:34;16.70;99.90
59660;DHT22;45534;52.690;6.268;2022-07-03T00:57:02;16.70;99.90
59660;DHT22;45534;52.690;6.268;2022-07-03T00:59:28;16.60;99.90
59660;DHT22;45534;52.690;6.268;2022-07-03T01:02:02;16.60;99.90
59660;DHT22;45534;52.690;6.268;2022-07-03T01:15:41;16.40;99.90
59660;DHT22;45534;52.690;6.268;2022-07-03T01:18:23;16.40;99.90
59660;DHT22;45534;52.690;6.268;2022-07-03T01:21:11;16.30;99.90
59660;DHT22;45534;52.690;6.268;2022-07-03T01:26:36;16.20;99.90
59660;DHT22;45534;52.690;6.268;2022-07-03T01:29:08;16.20;99.90
59660;DHT22;45534;52.690;6.268;2022-07-03T01:31:38;16.20;99.90
59660;DHT22;45534;52.690;6.268;2022-07-03T01:34:09;16.10;99.90
59660;DHT22;45534;52.690;6.268;2022-07-03T01:36:41;16.10;99.90
59660;DHT22;45534;52.690;6.268;2022-07-03T01:39:10;16.10;99.90
59660;DHT22;45534;52.690;6.268;2022-07-03T01:41:37;16.00;99.90
59660;DHT22;45534;52.690;6.268;2022-07-03T01:44:03;16.00;99.90
59660;DHT22;45534;52.690;6.268;2022-07-03T01:46:32;15.90;99.90
59660;DHT22;45534;52.690;6.268;2022-07-03T01:48:58;15.90;99.90
59660;DHT22;45534;52.690;6.268;2022-07-03T01:51:25;15.80;99.90
59660;DHT22;45534;52.690;6.268;2022-07-03T01:53:52;15.80;99.90
59660;DHT22;45534;52.690;6.268;2022-07-03T01:56:20;15.80;99.90
59660;DHT22;45534;52.690;6.268;2022-07-03T01:58:46;15.70;99.90
59660;DHT22;45534;52.690;6.268;2022-07-03T02:07:12;15.70;99.90
59660;DHT22;45534;52.690;6.268;2022-07-03T02:10:02;15.70;99.90
59660;DHT22;45534;52.690;6.268;2022-07-03T02:12:57;15.60;99.90
59660;DHT22;45534;52.690;6.268;2022-07-03T02:15:30;15.60;99.90
59660;DHT22;45534;52.690;6.268;2022-07-03T02:17:58;15.60;99.90
59660;DHT22;45534;52.690;6.268;2022-07-03T02:20:26;15.60;99.90
59660;DHT22;45534;52.690;6.268;2022-07-03T02:22:59;15.50;99.90
59660;DHT22;45534;52.690;6.268;2022-07-03T02:25:45;15.40;99.90
59660;DHT22;45534;52.690;6.268;2022-07-03T02:28:29;15.40;99.90
59660;DHT22;45534;52.690;6.268;2022-07-03T02:30:59;15.40;99.90
59660;DHT22;45534;52.690;6.268;2022-07-03T02:33:29;15.30;99.90
59660;DHT22;45534;52.690;6.268;2022-07-03T02:35:57;15.30;99.90
59660;DHT22;45534;52.690;6.268;2022-07-03T02:38:24;15.20;99.90
59660;DHT22;45534;52.690;6.268;2022-07-03T02:41:20;15.20;99.90
59660;DHT22;45534;52.690;6.268;2022-07-03T02:43:48;15.30;99.90
59660;DHT22;45534;52.690;6.268;2022-07-03T02:49:42;15.20;99.90
59660;DHT22;45534;52.690;6.268;2022-07-03T02:55:43;15.20;99.90
59660;DHT22;45534;52.690;6.268;2022-07-03T02:58:25;15.20;99.90
59660;DHT22;45534;52.690;6.268;2022-07-03T03:01:23;15.20;99.90
59660;DHT22;45534;52.690;6.268;2022-07-03T03:04:30;15.30;99.90
59660;DHT22;45534;52.690;6.268;2022-07-03T03:06:56;15.30;99.90
59660;DHT22;45534;52.690;6.268;2022-07-03T03:09:27;15.40;99.90
59660;DHT22;45534;52.690;6.268;2022-07-03T03:12:00;15.40;99.90
59660;DHT22;45534;52.690;6.268;2022-07-03T03:14:42;15.40;99.90
59660;DHT22;45534;52.690;6.268;2022-07-03T03:17:13;15.40;99.90
59660;DHT22;45534;52.690;6.268;2022-07-03T03:19:41;15.30;99.90
59660;DHT22;45534;52.690;6.268;2022-07-03T03:24:51;15.30;99.90
59660;DHT22;45534;52.690;6.268;2022-07-03T03:27:17;15.20;99.90
59660;DHT22;45534;52.690;6.268;2022-07-03T03:29:44;15.20;99.90
59660;DHT22;45534;52.690;6.268;2022-07-03T03:32:11;15.20;99.90
59660;DHT22;45534;52.690;6.268;2022-07-03T03:34:38;15.30;99.90
59660;DHT22;45534;52.690;6.268;2022-07-03T03:37:06;15.30;99.90
59660;DHT22;45534;52.690;6.268;2022-07-03T03:39:32;15.20;99.90
59660;DHT22;45534;52.690;6.268;2022-07-03T03:41:58;15.10;99.90
59660;DHT22;45534;52.690;6.268;2022-07-03T03:44:26;15.10;99.90
59660;DHT22;45534;52.690;6.268;2022-07-03T03:46:54;15.10;99.90
59660;DHT22;45534;52.690;6.268;2022-07-03T03:49:20;15.10;99.90
59660;DHT22;45534;52.690;6.268;2022-07-03T03:51:46;15.10;99.90
59660;DHT22;45534;52.690;6.268;2022-07-03T03:54:11;15.10;99.90
59660;DHT22;45534;52.690;6.268;2022-07-03T03:56:37;15.10;99.90
59660;DHT22;45534;52.690;6.268;2022-07-03T03:59:03;15.10;99.90
59660;DHT22;45534;52.690;6.268;2022-07-03T04:01:28;15.20;99.90
59660;DHT22;45534;52.690;6.268;2022-07-03T04:03:54;15.20;99.90
59660;DHT22;45534;52.690;6.268;2022-07-03T04:06:20;15.20;99.90
59660;DHT22;45534;52.690;6.268;2022-07-03T04:08:46;15.30;99.90
59660;DHT22;45534;52.690;6.268;2022-07-03T04:11:11;15.30;99.90
59660;DHT22;45534;52.690;6.268;2022-07-03T04:13:37;15.30;99.90
59660;DHT22;45534;52.690;6.268;2022-07-03T04:16:03;15.30;99.90
59660;DHT22;45534;52.690;6.268;2022-07-03T04:18:29;15.30;99.90
59660;DHT22;45534;52.690;6.268;2022-07-03T04:20:55;15.30;99.90
59660;DHT22;45534;52.690;6.268;2022-07-03T04:23:21;15.30;99.90
59660;DHT22;45534;52.690;6.268;2022-07-03T04:25:47;15.30;99.90
59660;DHT22;45534;52.690;6.268;2022-07-03T04:28:12;15.40;99.90
59660;DHT22;45534;52.690;6.268;2022-07-03T04:30:39;15.40;99.90
59660;DHT22;45534;52.690;6.268;2022-07-03T04:33:05;15.30;99.90
59660;DHT22;45534;52.690;6.268;2022-07-03T04:35:30;15.30;99.90
59660;DHT22;45534;52.690;6.268;2022-07-03T04:37:56;15.30;99.90
59660;DHT22;45534;52.690;6.268;2022-07-03T04:40:22;15.20;99.90
59660;DHT22;45534;52.690;6.268;2022-07-03T04:42:47;15.20;99.90
59660;DHT22;45534;52.690;6.268;2022-07-03T04:45:13;15.20;99.90
59660;DHT22;45534;52.690;6.268;2022-07-03T04:47:39;15.20;99.90
59660;DHT22;45534;52.690;6.268;2022-07-03T04:50:05;15.10;99.90
59660;DHT22;45534;52.690;6.268;2022-07-03T04:52:32;15.10;99.90
59660;DHT22;45534;52.690;6.268;2022-07-03T04:54:57;15.10;99.90
59660;DHT22;45534;52.690;6.268;2022-07-03T04:57:23;15.10;99.90
59660;DHT22;45534;52.690;6.268;2022-07-03T04:59:49;15.10;99.90
59660;DHT22;45534;52.690;6.268;2022-07-03T05:02:14;15.10;99.90
59660;DHT22;45534;52.690;6.268;2022-07-03T05:04:40;15.20;99.90
59660;DHT22;45534;52.690;6.268;2022-07-03T05:07:06;15.20;99.90
59660;DHT22;45534;52.690;6.268;2022-07-03T05:09:31;15.30;99.90
59660;DHT22;45534;52.690;6.268;2022-07-03T05:11:57;15.30;99.90
59660;DHT22;45534;52.690;6.268;2022-07-03T05:14:23;15.40;99.90
59660;DHT22;45534;52.690;6.268;2022-07-03T05:16:48;15.50;99.90
59660;DHT22;45534;52.690;6.268;2022-07-03T05:19:14;15.60;99.90
59660;DHT22;45534;52.690;6.268;2022-07-03T05:21:39;15.70;99.90
59660;DHT22;45534;52.690;6.268;2022-07-03T05:24:06;15.70;99.90
59660;DHT22;45534;52.690;6.268;2022-07-03T05:26:31;15.90;99.90
59660;DHT22;45534;52.690;6.268;2022-07-03T05:28:57;15.90;99.90
59660;DHT22;45534;52.690;6.268;2022-07-03T05:31:23;16.00;99.90
59660;DHT22;45534;52.690;6.268;2022-07-03T05:33:48;16.10;99.90
59660;DHT22;45534;52.690;6.268;2022-07-03T05:36:14;16.20;99.90
59660;DHT22;45534;52.690;6.268;2022-07-03T05:38:39;16.30;99.90
59660;DHT22;45534;52.690;6.268;2022-07-03T05:41:24;16.50;99.90
59660;DHT22;45534;52.690;6.268;2022-07-03T05:43:50;16.60;99.90
59660;DHT22;45534;52.690;6.268;2022-07-03T05:46:15;16.70;99.90
59660;DHT22;45534;52.690;6.268;2022-07-03T05:48:41;16.70;99.90
59660;DHT22;45534;52.690;6.268;2022-07-03T05:51:07;16.90;99.90
59660;DHT22;45534;52.690;6.268;2022-07-03T05:53:32;17.00;99.90
59660;DHT22;45534;52.690;6.268;2022-07-03T05:55:58;17.10;99.90
59660;DHT22;45534;52.690;6.268;2022-07-03T05:58:24;17.20;99.90
59660;DHT22;45534;52.690;6.268;2022-07-03T06:00:49;17.30;99.90
59660;DHT22;45534;52.690;6.268;2022-07-03T06:03:15;17.40;99.90
59660;DHT22;45534;52.690;6.268;2022-07-03T06:05:41;17.40;99.90
59660;DHT22;45534;52.690;6.268;2022-07-03T06:08:06;17.50;99.90
59660;DHT22;45534;52.690;6.268;2022-07-03T06:10:33;17.70;99.90
59660;DHT22;45534;52.690;6.268;2022-07-03T06:12:59;17.70;99.90
59660;DHT22;45534;52.690;6.268;2022-07-03T06:15:25;17.90;99.90
59660;DHT22;45534;52.690;6.268;2022-07-03T06:17:50;17.90;99.90
59660;DHT22;45534;52.690;6.268;2022-07-03T06:20:17;18.00;99.90
59660;DHT22;45534;52.690;6.268;2022-07-03T06:22:43;18.20;99.90
59660;DHT22;45534;52.690;6.268;2022-07-03T06:25:08;18.30;99.90
59660;DHT22;45534;52.690;6.268;2022-07-03T06:27:34;18.30;99.90
59660;DHT22;45534;52.690;6.268;2022-07-03T06:30:00;18.30;99.90
59660;DHT22;45534;52.690;6.268;2022-07-03T06:32:26;18.30;99.90
59660;DHT22;45534;52.690;6.268;2022-07-03T06:34:52;18.30;99.90
59660;DHT22;45534;52.690;6.268;2022-07-03T06:37:18;18.30;99.90
59660;DHT22;45534;52.690;6.268;2022-07-03T06:39:44;18.40;99.90
59660;DHT22;45534;52.690;6.268;2022-07-03T06:42:10;18.40;99.90
59660;DHT22;45534;52.690;6.268;2022-07-03T06:44:35;18.50;99.90
59660;DHT22;45534;52.690;6.268;2022-07-03T06:47:01;18.70;99.90
59660;DHT22;45534;52.690;6.268;2022-07-03T06:49:32;18.90;99.90
59660;DHT22;45534;52.690;6.268;2022-07-03T06:51:58;19.10;99.90
59660;DHT22;45534;52.690;6.268;2022-07-03T06:54:24;19.30;99.90
59660;DHT22;45534;52.690;6.268;2022-07-03T06:56:50;19.50;99.90
59660;DHT22;45534;52.690;6.268;2022-07-03T06:59:16;19.70;99.90
59660;DHT22;45534;52.690;6.268;2022-07-03T07:01:42;19.90;99.90
59660;DHT22;45534;52.690;6.268;2022-07-03T07:04:08;20.00;99.90
59660;DHT22;45534;52.690;6.268;2022-07-03T07:06:33;20.00;99.90
59660;DHT22;45534;52.690;6.268;2022-07-03T07:08:59;19.90;99.90
59660;DHT22;45534;52.690;6.268;2022-07-03T07:11:25;20.00;99.90
59660;DHT22;45534;52.690;6.268;2022-07-03T07:13:50;20.20;99.90
59660;DHT22;45534;52.690;6.268;2022-07-03T07:16:16;20.30;99.90
59660;DHT22;45534;52.690;6.268;2022-07-03T07:18:43;20.40;99.90
59660;DHT22;45534;52.690;6.268;2022-07-03T07:21:09;20.50;99.90
59660;DHT22;45534;52.690;6.268;2022-07-03T07:23:35;20.50;99.90
59660;DHT22;45534;52.690;6.268;2022-07-03T07:26:01;20.50;99.90
59660;DHT22;45534;52.690;6.268;2022-07-03T07:28:27;20.50;99.90
59660;DHT22;45534;52.690;6.268;2022-07-03T07:30:53;20.50;99.90
59660;DHT22;45534;52.690;6.268;2022-07-03T07:33:20;20.50;99.90
59660;DHT22;45534;52.690;6.268;2022-07-03T07:35:46;20.50;99.90
59660;DHT22;45534;52.690;6.268;2022-07-03T07:38:12;20.50;99.90
59660;DHT22;45534;52.690;6.268;2022-07-03T07:40:38;20.50;99.90
59660;DHT22;45534;52.690;6.268;2022-07-03T07:43:04;20.50;99.90
59660;DHT22;45534;52.690;6.268;2022-07-03T07:45:29;20.50;99.90
59660;DHT22;45534;52.690;6.268;2022-07-03T07:47:55;20.40;99.90
59660;DHT22;45534;52.690;6.268;2022-07-03T07:50:21;20.30;99.90
59660;DHT22;45534;52.690;6.268;2022-07-03T07:52:46;20.20;99.90
59660;DHT22;45534;52.690;6.268;2022-07-03T07:55:12;20.10;99.90
59660;DHT22;45534;52.690;6.268;2022-07-03T07:57:39;20.00;99.90
59660;DHT22;45534;52.690;6.268;2022-07-03T08:00:23;19.90;99.90
59660;DHT22;45534;52.690;6.268;2022-07-03T08:02:48;20.00;99.90
59660;DHT22;45534;52.690;6.268;2022-07-03T08:05:33;20.10;99.90
59660;DHT22;45534;52.690;6.268;2022-07-03T08:08:09;20.30;99.90
59660;DHT22;45534;52.690;6.268;2022-07-03T08:13:08;20.50;99.90
59660;DHT22;45534;52.690;6.268;2022-07-03T08:15:35;20.70;99.90
59660;DHT22;45534;52.690;6.268;2022-07-03T08:18:01;20.80;99.90
59660;DHT22;45534;52.690;6.268;2022-07-03T08:20:27;20.80;99.90
59660;DHT22;45534;52.690;6.268;2022-07-03T08:22:53;20.90;99.90
59660;DHT22;45534;52.690;6.268;2022-07-03T08:25:18;21.00;99.90
59660;DHT22;45534;52.690;6.268;2022-07-03T08:27:44;21.10;99.90
59660;DHT22;45534;52.690;6.268;2022-07-03T08:30:10;21.20;99.90
59660;DHT22;45534;52.690;6.268;2022-07-03T08:32:36;21.20;99.90
59660;DHT22;45534;52.690;6.268;2022-07-03T08:35:02;21.30;99.90
59660;DHT22;45534;52.690;6.268;2022-07-03T08:37:28;21.40;99.90
59660;DHT22;45534;52.690;6.268;2022-07-03T08:39:53;21.50;99.90
59660;DHT22;45534;52.690;6.268;2022-07-03T08:42:19;21.70;99.90
59660;DHT22;45534;52.690;6.268;2022-07-03T08:44:46;21.80;99.90
59660;DHT22;45534;52.690;6.268;2022-07-03T08:47:15;21.90;99.90
59660;DHT22;45534;52.690;6.268;2022-07-03T08:49:42;21.90;99.90
59660;DHT22;45534;52.690;6.268;2022-07-03T08:52:09;22.00;99.90
59660;DHT22;45534;52.690;6.268;2022-07-03T08:54:37;22.00;99.90
59660;DHT22;45534;52.690;6.268;2022-07-03T08:57:03;22.00;99.30
59660;DHT22;45534;52.690;6.268;2022-07-03T08:59:37;22.10;99.40
59660;DHT22;45534;52.690;6.268;2022-07-03T09:02:04;22.10;99.90
59660;DHT22;45534;52.690;6.268;2022-07-03T09:04:31;22.20;99.90
59660;DHT22;45534;52.690;6.268;2022-07-03T09:06:58;22.30;99.90
59660;DHT22;45534;52.690;6.268;2022-07-03T09:09:24;22.30;99.90
59660;DHT22;45534;52.690;6.268;2022-07-03T09:11:51;22.40;99.80
59660;DHT22;45534;52.690;6.268;2022-07-03T09:14:17;22.40;99.90
59660;DHT22;45534;52.690;6.268;2022-07-03T09:16:42;22.50;98.80
59660;DHT22;45534;52.690;6.268;2022-07-03T09:19:08;22.50;98.80
59660;DHT22;45534;52.690;6.268;2022-07-03T09:21:41;22.70;99.10
59660;DHT22;45534;52.690;6.268;2022-07-03T09:24:08;22.80;98.60
59660;DHT22;45534;52.690;6.268;2022-07-03T09:26:35;22.90;97.00
59660;DHT22;45534;52.690;6.268;2022-07-03T09:29:01;23.00;95.70
59660;DHT22;45534;52.690;6.268;2022-07-03T09:31:29;23.00;95.80
59660;DHT22;45534;52.690;6.268;2022-07-03T09:36:22;23.10;96.20
59660;DHT22;45534;52.690;6.268;2022-07-03T09:38:48;23.30;96.80
59660;DHT22;45534;52.690;6.268;2022-07-03T09:41:14;23.40;97.10
59660;DHT22;45534;52.690;6.268;2022-07-03T09:43:44;23.40;96.90
59660;DHT22;45534;52.690;6.268;2022-07-03T09:46:10;23.50;95.10
59660;DHT22;45534;52.690;6.268;2022-07-03T09:48:40;23.40;95.80
59660;DHT22;45534;52.690;6.268;2022-07-03T09:51:36;23.50;93.60
59660;DHT22;45534;52.690;6.268;2022-07-03T09:54:02;23.30;90.30
59660;DHT22;45534;52.690;6.268;2022-07-03T09:56:35;23.30;94.50
59660;DHT22;45534;52.690;6.268;2022-07-03T09:59:14;23.50;95.30
59660;DHT22;45534;52.690;6.268;2022-07-03T10:01:44;23.70;94.80
59660;DHT22;45534;52.690;6.268;2022-07-03T10:06:53;23.80;94.50
59660;DHT22;45534;52.690;6.268;2022-07-03T10:09:25;23.70;94.90
59660;DHT22;45534;52.690;6.268;2022-07-03T10:11:52;23.70;94.70
59660;DHT22;45534;52.690;6.268;2022-07-03T10:14:20;23.70;92.90
59660;DHT22;45534;52.690;6.268;2022-07-03T10:16:46;23.60;91.00
59660;DHT22;45534;52.690;6.268;2022-07-03T10:19:23;23.50;91.00
59660;DHT22;45534;52.690;6.268;2022-07-03T10:21:52;23.60;85.90
59660;DHT22;45534;52.690;6.268;2022-07-03T10:24:21;23.70;84.10
59660;DHT22;45534;52.690;6.268;2022-07-03T10:26:49;23.80;88.70
59660;DHT22;45534;52.690;6.268;2022-07-03T10:29:15;24.00;85.60
59660;DHT22;45534;52.690;6.268;2022-07-03T10:31:45;24.00;81.70
59660;DHT22;45534;52.690;6.268;2022-07-03T10:34:18;24.10;82.60
59660;DHT22;45534;52.690;6.268;2022-07-03T10:36:46;24.10;83.40
59660;DHT22;45534;52.690;6.268;2022-07-03T10:39:23;24.10;87.10
59660;DHT22;45534;52.690;6.268;2022-07-03T10:41:54;24.20;89.80
59660;DHT22;45534;52.690;6.268;2022-07-03T10:45:06;24.30;85.30
59660;DHT22;45534;52.690;6.268;2022-07-03T10:47:48;24.40;84.40
59660;DHT22;45534;52.690;6.268;2022-07-03T10:50:16;24.40;80.60
59660;DHT22;45534;52.690;6.268;2022-07-03T10:52:43;24.40;91.30
59660;DHT22;45534;52.690;6.268;2022-07-03T10:55:09;24.60;90.10
59660;DHT22;45534;52.690;6.268;2022-07-03T10:57:36;24.80;86.70
59660;DHT22;45534;52.690;6.268;2022-07-03T11:00:06;24.90;88.50
59660;DHT22;45534;52.690;6.268;2022-07-03T11:02:38;25.00;89.80
59660;DHT22;45534;52.690;6.268;2022-07-03T11:05:16;25.10;90.80
59660;DHT22;45534;52.690;6.268;2022-07-03T11:15:52;25.40;90.20
59660;DHT22;45534;52.690;6.268;2022-07-03T11:18:28;25.00;90.50
59660;DHT22;45534;52.690;6.268;2022-07-03T11:23:51;24.80;93.30
59660;DHT22;45534;52.690;6.268;2022-07-03T11:26:22;24.80;93.80
59660;DHT22;45534;52.690;6.268;2022-07-03T11:28:54;24.80;95.20
59660;DHT22;45534;52.690;6.268;2022-07-03T11:31:22;24.80;95.20
59660;DHT22;45534;52.690;6.268;2022-07-03T11:38:47;25.20;94.00
59660;DHT22;45534;52.690;6.268;2022-07-03T11:41:14;25.30;92.60
59660;DHT22;45534;52.690;6.268;2022-07-03T11:46:21;25.40;91.40
59660;DHT22;45534;52.690;6.268;2022-07-03T11:48:47;25.10;91.50
59660;DHT22;45534;52.690;6.268;2022-07-03T11:51:14;24.60;92.70
59660;DHT22;45534;52.690;6.268;2022-07-03T11:53:40;24.30;93.10
59660;DHT22;45534;52.690;6.268;2022-07-03T11:56:12;24.10;94.80
59660;DHT22;45534;52.690;6.268;2022-07-03T11:58:48;24.00;95.70
59660;DHT22;45534;52.690;6.268;2022-07-03T12:01:27;23.90;96.50
59660;DHT22;45534;52.690;6.268;2022-07-03T12:04:03;23.90;96.00
59660;DHT22;45534;52.690;6.268;2022-07-03T12:06:41;23.90;96.40
59660;DHT22;45534;52.690;6.268;2022-07-03T12:09:24;23.80;96.90
59660;DHT22;45534;52.690;6.268;2022-07-03T12:12:05;23.70;95.90
59660;DHT22;45534;52.690;6.268;2022-07-03T12:14:44;23.60;96.40
59660;DHT22;45534;52.690;6.268;2022-07-03T12:17:20;23.50;96.40
59660;DHT22;45534;52.690;6.268;2022-07-03T12:22:36;23.70;96.60
59660;DHT22;45534;52.690;6.268;2022-07-03T12:25:11;23.80;94.00
59660;DHT22;45534;52.690;6.268;2022-07-03T12:27:42;23.80;95.40
59660;DHT22;45534;52.690;6.268;2022-07-03T12:30:11;24.20;94.70
59660;DHT22;45534;52.690;6.268;2022-07-03T12:32:38;24.70;95.70
59660;DHT22;45534;52.690;6.268;2022-07-03T12:35:04;25.20;94.90
59660;DHT22;45534;52.690;6.268;2022-07-03T12:37:35;25.30;91.80
59660;DHT22;45534;52.690;6.268;2022-07-03T12:40:01;25.10;91.90
59660;DHT22;45534;52.690;6.268;2022-07-03T12:42:27;24.80;93.20
59660;DHT22;45534;52.690;6.268;2022-07-03T12:45:06;24.60;95.10
59660;DHT22;45534;52.690;6.268;2022-07-03T12:47:32;24.40;95.50
59660;DHT22;45534;52.690;6.268;2022-07-03T12:50:03;24.20;96.50
59660;DHT22;45534;52.690;6.268;2022-07-03T12:52:30;24.00;97.30
59660;DHT22;45534;52.690;6.268;2022-07-03T12:54:57;23.90;96.70
59660;DHT22;45534;52.690;6.268;2022-07-03T12:57:24;23.70;95.70
59660;DHT22;45534;52.690;6.268;2022-07-03T13:00:15;23.50;96.20
59660;DHT22;45534;52.690;6.268;2022-07-03T13:02:46;23.10;97.50
59660;DHT22;45534;52.690;6.268;2022-07-03T13:05:23;22.80;97.60
59660;DHT22;45534;52.690;6.268;2022-07-03T13:07:54;22.50;99.90
59660;DHT22;45534;52.690;6.268;2022-07-03T13:10:21;22.10;99.90
59660;DHT22;45534;52.690;6.268;2022-07-03T13:12:57;21.10;99.90
59660;DHT22;45534;52.690;6.268;2022-07-03T13:15:28;20.10;99.90
59660;DHT22;45534;52.690;6.268;2022-07-03T13:22:47;18.40;99.90
59660;DHT22;45534;52.690;6.268;2022-07-03T13:25:13;18.10;99.90
59660;DHT22;45534;52.690;6.268;2022-07-03T13:27:39;17.80;99.90
59660;DHT22;45534;52.690;6.268;2022-07-03T13:30:05;17.80;99.90
59660;DHT22;45534;52.690;6.268;2022-07-03T13:32:31;17.80;99.90
59660;DHT22;45534;52.690;6.268;2022-07-03T13:34:56;17.70;99.90
59660;DHT22;45534;52.690;6.268;2022-07-03T13:37:22;17.70;99.90
59660;DHT22;45534;52.690;6.268;2022-07-03T13:39:48;17.70;99.90
59660;DHT22;45534;52.690;6.268;2022-07-03T13:42:13;17.70;99.90
59660;DHT22;45534;52.690;6.268;2022-07-03T13:44:39;17.80;99.90
59660;DHT22;45534;52.690;6.268;2022-07-03T13:47:05;17.90;99.90
59660;DHT22;45534;52.690;6.268;2022-07-03T13:49:32;18.00;99.90
59660;DHT22;45534;52.690;6.268;2022-07-03T13:51:58;18.40;99.90
59660;DHT22;45534;52.690;6.268;2022-07-03T13:54:24;18.90;99.90
59660;DHT22;45534;52.690;6.268;2022-07-03T13:56:50;19.30;99.90
59660;DHT22;45534;52.690;6.268;2022-07-03T13:59:16;19.50;99.90
59660;DHT22;45534;52.690;6.268;2022-07-03T14:01:42;19.80;99.90
59660;DHT22;45534;52.690;6.268;2022-07-03T14:04:08;20.30;99.90
59660;DHT22;45534;52.690;6.268;2022-07-03T14:06:34;20.60;99.90
59660;DHT22;45534;52.690;6.268;2022-07-03T14:09:00;20.80;99.90
59660;DHT22;45534;52.690;6.268;2022-07-03T14:11:26;21.30;99.90
59660;DHT22;45534;52.690;6.268;2022-07-03T14:13:52;21.70;99.90
59660;DHT22;45534;52.690;6.268;2022-07-03T14:16:17;22.00;99.90
59660;DHT22;45534;52.690;6.268;2022-07-03T14:18:43;22.40;99.90
59660;DHT22;45534;52.690;6.268;2022-07-03T14:21:09;22.50;99.90
59660;DHT22;45534;52.690;6.268;2022-07-03T14:23:35;22.30;99.90
59660;DHT22;45534;52.690;6.268;2022-07-03T14:26:00;22.30;99.90
59660;DHT22;45534;52.690;6.268;2022-07-03T14:28:26;22.10;99.90
59660;DHT22;45534;52.690;6.268;2022-07-03T14:31:11;21.90;99.90
59660;DHT22;45534;52.690;6.268;2022-07-03T14:34:02;21.70;99.90
59660;DHT22;45534;52.690;6.268;2022-07-03T14:36:28;21.50;99.90
59660;DHT22;45534;52.690;6.268;2022-07-03T14:38:54;21.40;99.90
59660;DHT22;45534;52.690;6.268;2022-07-03T14:41:19;21.30;99.90
59660;DHT22;45534;52.690;6.268;2022-07-03T14:43:45;21.00;99.90
59660;DHT22;45534;52.690;6.268;2022-07-03T14:46:11;20.90;99.90
59660;DHT22;45534;52.690;6.268;2022-07-03T14:48:36;20.80;99.90
59660;DHT22;45534;52.690;6.268;2022-07-03T14:51:02;20.70;99.90
59660;DHT22;45534;52.690;6.268;2022-07-03T14:53:28;20.60;99.90
59660;DHT22;45534;52.690;6.268;2022-07-03T14:55:53;20.50;99.90
59660;DHT22;45534;52.690;6.268;2022-07-03T14:58:25;20.50;99.90
59660;DHT22;45534;52.690;6.268;2022-07-03T15:00:53;20.50;99.90
59660;DHT22;45534;52.690;6.268;2022-07-03T15:03:29;20.50;99.90
59660;DHT22;45534;52.690;6.268;2022-07-03T15:05:57;20.50;99.90
59660;DHT22;45534;52.690;6.268;2022-07-03T15:11:07;20.60;99.90
59660;DHT22;45534;52.690;6.268;2022-07-03T15:13:59;20.90;99.90
59660;DHT22;45534;52.690;6.268;2022-07-03T15:16:29;21.20;99.90
59660;DHT22;45534;52.690;6.268;2022-07-03T15:19:01;21.70;99.90
59660;DHT22;45534;52.690;6.268;2022-07-03T15:21:30;22.20;99.90
59660;DHT22;45534;52.690;6.268;2022-07-03T15:24:01;22.40;99.90
59660;DHT22;45534;52.690;6.268;2022-07-03T15:26:31;22.50;99.90
59660;DHT22;45534;52.690;6.268;2022-07-03T15:29:01;22.20;99.90
59660;DHT22;45534;52.690;6.268;2022-07-03T15:31:29;21.70;99.90
59660;DHT22;45534;52.690;6.268;2022-07-03T15:34:03;21.50;99.90
59660;DHT22;45534;52.690;6.268;2022-07-03T15:36:38;21.30;99.90
59660;DHT22;45534;52.690;6.268;2022-07-03T15:39:08;21.10;99.90
59660;DHT22;45534;52.690;6.268;2022-07-03T15:42:05;21.10;99.90
59660;DHT22;45534;52.690;6.268;2022-07-03T15:47:36;21.00;99.90
59660;DHT22;45534;52.690;6.268;2022-07-03T15:50:08;21.30;99.90
59660;DHT22;45534;52.690;6.268;2022-07-03T15:52:42;21.70;99.90
59660;DHT22;45534;52.690;6.268;2022-07-03T15:55:11;22.10;99.90
59660;DHT22;45534;52.690;6.268;2022-07-03T15:57:44;22.40;99.90
59660;DHT22;45534;52.690;6.268;2022-07-03T16:00:14;22.40;99.90
59660;DHT22;45534;52.690;6.268;2022-07-03T16:05:34;22.10;99.90
59660;DHT22;45534;52.690;6.268;2022-07-03T16:08:04;22.20;99.90
59660;DHT22;45534;52.690;6.268;2022-07-03T16:10:31;22.70;99.90
59660;DHT22;45534;52.690;6.268;2022-07-03T16:13:00;23.20;99.90
59660;DHT22;45534;52.690;6.268;2022-07-03T16:15:37;23.60;99.90
59660;DHT22;45534;52.690;6.268;2022-07-03T16:18:04;23.70;99.90
59660;DHT22;45534;52.690;6.268;2022-07-03T16:20:30;23.70;99.90
59660;DHT22;45534;52.690;6.268;2022-07-03T16:23:00;23.50;99.90
59660;DHT22;45534;52.690;6.268;2022-07-03T16:25:26;22.80;99.90
59660;DHT22;45534;52.690;6.268;2022-07-03T16:27:52;22.20;99.90
59660;DHT22;45534;52.690;6.268;2022-07-03T16:30:17;21.60;99.90
59660;DHT22;45534;52.690;6.268;2022-07-03T16:32:43;21.10;99.90
59660;DHT22;45534;52.690;6.268;2022-07-03T16:35:30;20.80;99.90
59660;DHT22;45534;52.690;6.268;2022-07-03T16:38:05;20.60;99.90
59660;DHT22;45534;52.690;6.268;2022-07-03T16:40:31;20.40;99.90
59660;DHT22;45534;52.690;6.268;2022-07-03T16:42:59;20.20;99.90
59660;DHT22;45534;52.690;6.268;2022-07-03T16:45:28;20.10;99.90
59660;DHT22;45534;52.690;6.268;2022-07-03T16:48:00;20.00;99.90
59660;DHT22;45534;52.690;6.268;2022-07-03T16:50:30;19.80;99.90
59660;DHT22;45534;52.690;6.268;2022-07-03T16:52:56;19.70;99.90